sensor_id;sensor_type;location;lat;lon;timestamp;temperature;humidity
10042;DHT22;5061;49.068;12.058;2024-03-08T00:02:58;1.20;99.90
10042;DHT22;5061;49.068;12.058;2024-03-08T00:06:19;1.20;99.90
10042;DHT22;5061;49.068;12.058;2024-03-08T00:09:39;1.20;99.90
10042;DHT22;5061;49.068;12.058;2024-03-08T00:13:00;1.20;99.90
10042;DHT22;5061;49.068;12.058;2024-03-08T00:16:22;1.20;99.90
10042;DHT22;5061;49.068;12.058;2024-03-08T00:19:43;1.20;99.90
10042;DHT22;5061;49.068;12.058;2024-03-08T00:23:04;1.20;99.90
10042;DHT22;5061;49.068;12.058;2024-03-08T00:26:24;1.20;99.90
10042;DHT22;5061;49.068;12.058;2024-03-08T00:29:45;1.10;99.90
10042;DHT22;5061;49.068;12.058;2024-03-08T00:33:07;1.10;99.90
10042;DHT22;5061;49.068;12.058;2024-03-08T00:36:28;1.00;99.90
10042;DHT22;5061;49.068;12.058;2024-03-08T00:39:51;1.00;99.90
10042;DHT22;5061;49.068;12.058;2024-03-08T00:43:11;0.90;99.90
10042;DHT22;5061;49.068;12.058;2024-03-08T00:46:32;0.90;99.90
10042;DHT22;5061;49.068;12.058;2024-03-08T00:49:54;0.90;99.90
10042;DHT22;5061;49.068;12.058;2024-03-08T00:53:17;0.80;99.90
10042;DHT22;5061;49.068;12.058;2024-03-08T00:56:37;0.80;99.90
10042;DHT22;5061;49.068;12.058;2024-03-08T00:59:59;0.80;99.90
10042;DHT22;5061;49.068;12.058;2024-03-08T01:03:20;0.80;99.90
10042;DHT22;5061;49.068;12.058;2024-03-08T01:06:40;0.70;99.90
10042;DHT22;5061;49.068;12.058;2024-03-08T01:10:03;0.70;99.90
10042;DHT22;5061;49.068;12.058;2024-03-08T01:13:24;0.70;99.90
10042;DHT22;5061;49.068;12.058;2024-03-08T01:16:44;0.70;99.90
10042;DHT22;5061;49.068;12.058;2024-03-08T01:20:05;0.70;99.90
10042;DHT22;5061;49.068;12.058;2024-03-08T01:23:26;0.70;99.90
10042;DHT22;5061;49.068;12.058;2024-03-08T01:26:47;0.70;99.90
10042;DHT22;5061;49.068;12.058;2024-03-08T01:30:08;0.70;99.90
10042;DHT22;5061;49.068;12.058;2024-03-08T01:33:29;0.70;99.90
10042;DHT22;5061;49.068;12.058;2024-03-08T01:36:51;0.60;99.90
10042;DHT22;5061;49.068;12.058;2024-03-08T01:40:12;0.70;99.90
10042;DHT22;5061;49.068;12.058;2024-03-08T01:43:32;0.60;99.90
10042;DHT22;5061;49.068;12.058;2024-03-08T01:46:53;0.60;99.90
10042;DHT22;5061;49.068;12.058;2024-03-08T01:50:14;0.60;99.90
10042;DHT22;5061;49.068;12.058;2024-03-08T01:53:36;0.50;99.90
10042;DHT22;5061;49.068;12.058;2024-03-08T01:56:57;0.50;99.90
10042;DHT22;5061;49.068;12.058;2024-03-08T02:00:20;0.50;99.90
10042;DHT22;5061;49.068;12.058;2024-03-08T02:03:41;0.40;99.90
10042;DHT22;5061;49.068;12.058;2024-03-08T02:07:04;0.40;99.90
10042;DHT22;5061;49.068;12.058;2024-03-08T02:10:26;0.40;99.90
10042;DHT22;5061;49.068;12.058;2024-03-08T02:13:46;0.40;99.90
10042;DHT22;5061;49.068;12.058;2024-03-08T02:17:07;0.40;99.90
10042;DHT22;5061;49.068;12.058;2024-03-08T02:20:29;0.40;99.90
10042;DHT22;5061;49.068;12.058;2024-03-08T02:23:49;0.40;99.90
10042;DHT22;5061;49.068;12.058;2024-03-08T02:27:12;0.40;99.90
10042;DHT22;5061;49.068;12.058;2024-03-08T02:30:33;0.40;99.90
10042;DHT22;5061;49.068;12.058;2024-03-08T02:33:53;0.40;99.90
10042;DHT22;5061;49.068;12.058;2024-03-08T02:37:15;0.40;99.90
10042;DHT22;5061;49.068;12.058;2024-03-08T02:40:35;0.30;99.90
10042;DHT22;5061;49.068;12.058;2024-03-08T02:43:56;0.30;99.90
10042;DHT22;5061;49.068;12.058;2024-03-08T02:47:16;0.30;99.90
10042;DHT22;5061;49.068;12.058;2024-03-08T02:50:37;0.20;99.90
10042;DHT22;5061;49.068;12.058;2024-03-08T02:54:00;0.20;99.90
10042;DHT22;5061;49.068;12.058;2024-03-08T02:57:20;0.20;99.90
10042;DHT22;5061;49.068;12.058;2024-03-08T03:00:41;0.20;99.90
10042;DHT22;5061;49.068;12.058;2024-03-08T03:04:01;0.20;99.90
10042;DHT22;5061;49.068;12.058;2024-03-08T03:07:23;0.20;99.90
10042;DHT22;5061;49.068;12.058;2024-03-08T03:10:43;0.20;99.90
10042;DHT22;5061;49.068;12.058;2024-03-08T03:14:04;0.10;99.90
10042;DHT22;5061;49.068;12.058;2024-03-08T03:17:25;0.20;99.90
10042;DHT22;5061;49.068;12.058;2024-03-08T03:20:46;0.20;99.90
10042;DHT22;5061;49.068;12.058;2024-03-08T03:24:06;0.20;99.90
10042;DHT22;5061;49.068;12.058;2024-03-08T03:27:30;0.20;99.90
10042;DHT22;5061;49.068;12.058;2024-03-08T03:30:51;0.20;99.90
10042;DHT22;5061;49.068;12.058;2024-03-08T03:34:11;0.20;99.90
10042;DHT22;5061;49.068;12.058;2024-03-08T03:37:32;0.20;99.90
10042;DHT22;5061;49.068;12.058;2024-03-08T03:40:54;0.10;99.90
10042;DHT22;5061;49.068;12.058;2024-03-08T03:44:18;0.10;99.90
10042;DHT22;5061;49.068;12.058;2024-03-08T03:47:38;0.10;99.90
10042;DHT22;5061;49.068;12.058;2024-03-08T03:50:59;0.10;99.90
10042;DHT22;5061;49.068;12.058;2024-03-08T03:54:19;0.00;99.90
10042;DHT22;5061;49.068;12.058;2024-03-08T03:57:40;0.00;99.90
10042;DHT22;5061;49.068;12.058;2024-03-08T04:01:01;0.00;99.90
10042;DHT22;5061;49.068;12.058;2024-03-08T04:04:21;-0.10;99.90
10042;DHT22;5061;49.068;12.058;2024-03-08T04:07:43;-0.10;99.90
10042;DHT22;5061;49.068;12.058;2024-03-08T04:11:04;-0.10;99.90
10042;DHT22;5061;49.068;12.058;2024-03-08T04:14:25;-0.10;99.90
10042;DHT22;5061;49.068;12.058;2024-03-08T04:17:45;-0.10;99.90
10042;DHT22;5061;49.068;12.058;2024-03-08T04:21:06;-0.10;99.90
10042;DHT22;5061;49.068;12.058;2024-03-08T04:24:29;-0.20;99.90
10042;DHT22;5061;49.068;12.058;2024-03-08T04:27:51;-0.20;99.90
10042;DHT22;5061;49.068;12.058;2024-03-08T04:31:13;-0.30;99.90
10042;DHT22;5061;49.068;12.058;2024-03-08T04:34:33;-0.30;99.90
10042;DHT22;5061;49.068;12.058;2024-03-08T04:37:54;-0.40;99.90
10042;DHT22;5061;49.068;12.058;2024-03-08T04:41:17;-0.40;99.90
10042;DHT22;5061;49.068;12.058;2024-03-08T04:44:38;-0.40;99.90
10042;DHT22;5061;49.068;12.058;2024-03-08T04:47:59;-0.40;99.90
10042;DHT22;5061;49.068;12.058;2024-03-08T04:51:20;-0.30;99.90
10042;DHT22;5061;49.068;12.058;2024-03-08T04:54:41;-0.30;99.90
10042;DHT22;5061;49.068;12.058;2024-03-08T04:58:01;-0.30;99.90
10042;DHT22;5061;49.068;12.058;2024-03-08T05:01:24;-0.30;99.90
10042;DHT22;5061;49.068;12.058;2024-03-08T05:04:44;-0.30;99.90
10042;DHT22;5061;49.068;12.058;2024-03-08T05:08:05;-0.30;99.90
10042;DHT22;5061;49.068;12.058;2024-03-08T05:11:26;-0.30;99.90
10042;DHT22;5061;49.068;12.058;2024-03-08T05:14:47;-0.30;99.90
10042;DHT22;5061;49.068;12.058;2024-03-08T05:18:10;-0.30;99.90
10042;DHT22;5061;49.068;12.058;2024-03-08T05:21:31;-0.30;99.90
10042;DHT22;5061;49.068;12.058;2024-03-08T05:24:52;-0.30;99.90
10042;DHT22;5061;49.068;12.058;2024-03-08T05:28:13;-0.30;99.90
10042;DHT22;5061;49.068;12.058;2024-03-08T05:31:43;-0.40;99.90
10042;DHT22;5061;49.068;12.058;2024-03-08T05:35:06;-0.40;99.90
10042;DHT22;5061;49.068;12.058;2024-03-08T05:38:27;-0.40;99.90
10042;DHT22;5061;49.068;12.058;2024-03-08T05:41:48;-0.40;99.90
10042;DHT22;5061;49.068;12.058;2024-03-08T05:45:09;-0.40;99.90
10042;DHT22;5061;49.068;12.058;2024-03-08T05:48:33;-0.40;99.90
10042;DHT22;5061;49.068;12.058;2024-03-08T05:51:53;-0.40;99.90
10042;DHT22;5061;49.068;12.058;2024-03-08T05:55:14;-0.40;99.90
10042;DHT22;5061;49.068;12.058;2024-03-08T05:58:35;-0.40;99.90
10042;DHT22;5061;49.068;12.058;2024-03-08T06:01:55;-0.40;99.90
10042;DHT22;5061;49.068;12.058;2024-03-08T06:05:17;-0.50;99.90
10042;DHT22;5061;49.068;12.058;2024-03-08T06:08:37;-0.50;99.90
10042;DHT22;5061;49.068;12.058;2024-03-08T06:11:58;-0.50;99.90
10042;DHT22;5061;49.068;12.058;2024-03-08T06:15:18;-0.50;99.90
10042;DHT22;5061;49.068;12.058;2024-03-08T06:18:41;-0.50;99.90
10042;DHT22;5061;49.068;12.058;2024-03-08T06:22:02;-0.60;99.90
10042;DHT22;5061;49.068;12.058;2024-03-08T06:25:25;-0.60;99.90
10042;DHT22;5061;49.068;12.058;2024-03-08T06:28:46;-0.50;99.90
10042;DHT22;5061;49.068;12.058;2024-03-08T06:32:07;-0.60;99.90
10042;DHT22;5061;49.068;12.058;2024-03-08T06:35:27;-0.50;99.90
10042;DHT22;5061;49.068;12.058;2024-03-08T06:38:49;-0.50;99.90
10042;DHT22;5061;49.068;12.058;2024-03-08T06:42:09;-0.50;99.90
10042;DHT22;5061;49.068;12.058;2024-03-08T06:45:31;-0.40;99.90
10042;DHT22;5061;49.068;12.058;2024-03-08T06:48:51;-0.40;99.90
10042;DHT22;5061;49.068;12.058;2024-03-08T06:52:12;-0.40;99.90
10042;DHT22;5061;49.068;12.058;2024-03-08T06:55:32;-0.30;99.90
10042;DHT22;5061;49.068;12.058;2024-03-08T06:58:53;-0.30;99.90
10042;DHT22;5061;49.068;12.058;2024-03-08T07:02:14;-0.20;99.90
10042;DHT22;5061;49.068;12.058;2024-03-08T07:05:35;-0.20;99.90
10042;DHT22;5061;49.068;12.058;2024-03-08T07:08:55;-0.10;99.90
10042;DHT22;5061;49.068;12.058;2024-03-08T07:12:16;-0.10;99.90
10042;DHT22;5061;49.068;12.058;2024-03-08T07:15:37;0.00;99.90
10042;DHT22;5061;49.068;12.058;2024-03-08T07:18:58;0.00;99.90
10042;DHT22;5061;49.068;12.058;2024-03-08T07:22:19;0.10;99.90
10042;DHT22;5061;49.068;12.058;2024-03-08T07:25:39;0.10;99.90
10042;DHT22;5061;49.068;12.058;2024-03-08T07:29:00;0.10;99.90
10042;DHT22;5061;49.068;12.058;2024-03-08T07:32:21;0.20;99.90
10042;DHT22;5061;49.068;12.058;2024-03-08T07:35:42;0.20;99.90
10042;DHT22;5061;49.068;12.058;2024-03-08T07:39:02;0.20;99.90
10042;DHT22;5061;49.068;12.058;2024-03-08T07:42:25;0.30;99.90
10042;DHT22;5061;49.068;12.058;2024-03-08T07:45:46;0.30;99.90
10042;DHT22;5061;49.068;12.058;2024-03-08T07:49:07;0.30;99.90
10042;DHT22;5061;49.068;12.058;2024-03-08T07:52:31;0.40;99.90
10042;DHT22;5061;49.068;12.058;2024-03-08T07:55:51;0.40;99.90
10042;DHT22;5061;49.068;12.058;2024-03-08T07:59:12;0.50;99.90
10042;DHT22;5061;49.068;12.058;2024-03-08T08:02:33;0.50;99.90
10042;DHT22;5061;49.068;12.058;2024-03-08T08:05:55;0.60;99.90
10042;DHT22;5061;49.068;12.058;2024-03-08T08:09:16;0.70;99.90
10042;DHT22;5061;49.068;12.058;2024-03-08T08:12:42;0.80;99.90
10042;DHT22;5061;49.068;12.058;2024-03-08T08:16:03;0.80;99.90
10042;DHT22;5061;49.068;12.058;2024-03-08T08:19:26;0.90;99.90
10042;DHT22;5061;49.068;12.058;2024-03-08T08:22:47;1.00;99.90
10042;DHT22;5061;49.068;12.058;2024-03-08T08:26:08;1.00;99.90
10042;DHT22;5061;49.068;12.058;2024-03-08T08:29:30;1.10;99.90
10042;DHT22;5061;49.068;12.058;2024-03-08T08:32:51;1.20;99.90
10042;DHT22;5061;49.068;12.058;2024-03-08T08:36:11;1.30;99.90
10042;DHT22;5061;49.068;12.058;2024-03-08T08:39:32;1.40;99.90
10042;DHT22;5061;49.068;12.058;2024-03-08T08:42:53;1.40;99.90
10042;DHT22;5061;49.068;12.058;2024-03-08T08:46:16;1.50;99.90
10042;DHT22;5061;49.068;12.058;2024-03-08T08:49:37;1.60;99.90
10042;DHT22;5061;49.068;12.058;2024-03-08T08:52:58;1.60;99.90
10042;DHT22;5061;49.068;12.058;2024-03-08T08:56:18;1.70;99.90
10042;DHT22;5061;49.068;12.058;2024-03-08T08:59:39;1.80;99.90
10042;DHT22;5061;49.068;12.058;2024-03-08T09:03:00;1.90;99.90
10042;DHT22;5061;49.068;12.058;2024-03-08T09:06:22;2.00;99.90
10042;DHT22;5061;49.068;12.058;2024-03-08T09:09:43;2.00;99.90
10042;DHT22;5061;49.068;12.058;2024-03-08T09:13:04;2.10;99.90
10042;DHT22;5061;49.068;12.058;2024-03-08T09:16:24;2.20;99.90
10042;DHT22;5061;49.068;12.058;2024-03-08T09:19:45;2.30;99.90
10042;DHT22;5061;49.068;12.058;2024-03-08T09:23:06;2.40;99.90
10042;DHT22;5061;49.068;12.058;2024-03-08T09:26:26;2.50;99.90
10042;DHT22;5061;49.068;12.058;2024-03-08T09:29:47;2.60;99.90
10042;DHT22;5061;49.068;12.058;2024-03-08T09:33:07;2.60;99.90
10042;DHT22;5061;49.068;12.058;2024-03-08T09:36:30;2.70;99.90
10042;DHT22;5061;49.068;12.058;2024-03-08T09:39:52;2.70;99.90
10042;DHT22;5061;49.068;12.058;2024-03-08T09:43:13;2.90;99.90
10042;DHT22;5061;49.068;12.058;2024-03-08T09:46:34;2.90;99.90
10042;DHT22;5061;49.068;12.058;2024-03-08T09:49:55;3.00;99.90
10042;DHT22;5061;49.068;12.058;2024-03-08T09:53:16;3.10;99.90
10042;DHT22;5061;49.068;12.058;2024-03-08T09:56:39;3.20;99.90
10042;DHT22;5061;49.068;12.058;2024-03-08T10:00:02;3.20;99.90
10042;DHT22;5061;49.068;12.058;2024-03-08T10:03:29;3.30;99.90
10042;DHT22;5061;49.068;12.058;2024-03-08T10:06:50;3.40;99.90
10042;DHT22;5061;49.068;12.058;2024-03-08T10:10:10;3.40;99.90
10042;DHT22;5061;49.068;12.058;2024-03-08T10:13:32;3.50;99.90
10042;DHT22;5061;49.068;12.058;2024-03-08T10:16:53;3.50;99.90
10042;DHT22;5061;49.068;12.058;2024-03-08T10:20:17;3.60;99.90
10042;DHT22;5061;49.068;12.058;2024-03-08T10:23:39;3.70;99.90
10042;DHT22;5061;49.068;12.058;2024-03-08T10:27:01;3.70;99.90
10042;DHT22;5061;49.068;12.058;2024-03-08T10:30:24;3.80;99.90
10042;DHT22;5061;49.068;12.058;2024-03-08T10:33:46;3.90;99.90
10042;DHT22;5061;49.068;12.058;2024-03-08T10:37:07;4.00;99.90
10042;DHT22;5061;49.068;12.058;2024-03-08T10:40:30;4.00;99.90
10042;DHT22;5061;49.068;12.058;2024-03-08T10:47:29;4.30;99.90
10042;DHT22;5061;49.068;12.058;2024-03-08T10:50:51;4.40;99.90
10042;DHT22;5061;49.068;12.058;2024-03-08T10:54:14;4.50;99.90
10042;DHT22;5061;49.068;12.058;2024-03-08T10:57:36;4.60;99.90
10042;DHT22;5061;49.068;12.058;2024-03-08T11:00:58;4.70;99.90
10042;DHT22;5061;49.068;12.058;2024-03-08T11:04:19;4.80;99.90
10042;DHT22;5061;49.068;12.058;2024-03-08T11:07:43;4.80;99.90
10042;DHT22;5061;49.068;12.058;2024-03-08T11:11:03;4.90;99.90
10042;DHT22;5061;49.068;12.058;2024-03-08T11:14:44;5.00;99.90
10042;DHT22;5061;49.068;12.058;2024-03-08T11:18:06;5.10;99.90
10042;DHT22;5061;49.068;12.058;2024-03-08T11:21:31;5.20;99.90
10042;DHT22;5061;49.068;12.058;2024-03-08T11:24:57;5.20;99.90
10042;DHT22;5061;49.068;12.058;2024-03-08T11:28:22;5.30;99.90
10042;DHT22;5061;49.068;12.058;2024-03-08T11:31:43;5.40;99.90
10042;DHT22;5061;49.068;12.058;2024-03-08T11:35:17;5.50;99.90
10042;DHT22;5061;49.068;12.058;2024-03-08T11:38:42;5.50;99.90
10042;DHT22;5061;49.068;12.058;2024-03-08T11:42:04;5.60;99.90
10042;DHT22;5061;49.068;12.058;2024-03-08T11:45:25;5.60;99.90
10042;DHT22;5061;49.068;12.058;2024-03-08T11:48:47;5.70;99.90
10042;DHT22;5061;49.068;12.058;2024-03-08T11:52:11;5.80;99.90
10042;DHT22;5061;49.068;12.058;2024-03-08T11:55:33;5.80;99.90
10042;DHT22;5061;49.068;12.058;2024-03-08T11:58:56;5.90;99.90
10042;DHT22;5061;49.068;12.058;2024-03-08T12:02:21;6.00;99.90
10042;DHT22;5061;49.068;12.058;2024-03-08T12:05:41;6.20;99.90
10042;DHT22;5061;49.068;12.058;2024-03-08T12:09:03;6.30;99.90
10042;DHT22;5061;49.068;12.058;2024-03-08T12:12:24;6.30;99.90
10042;DHT22;5061;49.068;12.058;2024-03-08T12:15:45;6.40;99.90
10042;DHT22;5061;49.068;12.058;2024-03-08T12:19:06;6.40;99.90
10042;DHT22;5061;49.068;12.058;2024-03-08T12:22:27;6.50;99.90
10042;DHT22;5061;49.068;12.058;2024-03-08T12:25:47;6.60;99.90
10042;DHT22;5061;49.068;12.058;2024-03-08T12:29:19;6.70;99.90
10042;DHT22;5061;49.068;12.058;2024-03-08T12:33:00;6.80;99.90
10042;DHT22;5061;49.068;12.058;2024-03-08T12:36:21;7.00;99.90
10042;DHT22;5061;49.068;12.058;2024-03-08T12:39:41;7.30;99.90
10042;DHT22;5061;49.068;12.058;2024-03-08T12:43:02;7.60;99.90
10042;DHT22;5061;49.068;12.058;2024-03-08T12:46:23;7.90;99.90
10042;DHT22;5061;49.068;12.058;2024-03-08T12:49:46;8.30;99.90
10042;DHT22;5061;49.068;12.058;2024-03-08T12:53:07;8.60;99.90
10042;DHT22;5061;49.068;12.058;2024-03-08T12:56:30;8.80;99.90
10042;DHT22;5061;49.068;12.058;2024-03-08T12:59:51;9.00;99.90
10042;DHT22;5061;49.068;12.058;2024-03-08T13:03:14;9.30;99.90
10042;DHT22;5061;49.068;12.058;2024-03-08T13:06:35;9.50;99.90
10042;DHT22;5061;49.068;12.058;2024-03-08T13:09:55;9.90;99.90
10042;DHT22;5061;49.068;12.058;2024-03-08T13:13:17;10.20;99.90
10042;DHT22;5061;49.068;12.058;2024-03-08T13:16:38;10.50;99.90
10042;DHT22;5061;49.068;12.058;2024-03-08T13:19:58;10.50;99.90
10042;DHT22;5061;49.068;12.058;2024-03-08T13:23:19;10.50;99.90
10042;DHT22;5061;49.068;12.058;2024-03-08T13:26:40;10.50;99.90
10042;DHT22;5061;49.068;12.058;2024-03-08T13:30:03;10.70;99.90
10042;DHT22;5061;49.068;12.058;2024-03-08T13:33:24;10.80;99.90
10042;DHT22;5061;49.068;12.058;2024-03-08T13:36:45;10.90;99.90
10042;DHT22;5061;49.068;12.058;2024-03-08T13:40:07;10.90;99.90
10042;DHT22;5061;49.068;12.058;2024-03-08T13:43:31;10.90;99.90
10042;DHT22;5061;49.068;12.058;2024-03-08T13:46:55;11.00;99.90
10042;DHT22;5061;49.068;12.058;2024-03-08T13:50:18;11.00;99.90
10042;DHT22;5061;49.068;12.058;2024-03-08T13:53:41;10.90;99.90
10042;DHT22;5061;49.068;12.058;2024-03-08T13:57:02;10.90;99.90
10042;DHT22;5061;49.068;12.058;2024-03-08T14:00:24;10.90;99.90
10042;DHT22;5061;49.068;12.058;2024-03-08T14:03:48;11.10;99.90
10042;DHT22;5061;49.068;12.058;2024-03-08T14:07:08;11.10;99.90
10042;DHT22;5061;49.068;12.058;2024-03-08T14:10:29;11.00;99.90
10042;DHT22;5061;49.068;12.058;2024-03-08T14:13:51;10.90;99.90
10042;DHT22;5061;49.068;12.058;2024-03-08T14:17:12;10.90;99.90
10042;DHT22;5061;49.068;12.058;2024-03-08T14:20:37;11.00;99.90
10042;DHT22;5061;49.068;12.058;2024-03-08T14:23:58;11.00;99.90
10042;DHT22;5061;49.068;12.058;2024-03-08T14:27:18;11.00;99.90
10042;DHT22;5061;49.068;12.058;2024-03-08T14:30:39;10.90;99.90
10042;DHT22;5061;49.068;12.058;2024-03-08T14:34:01;11.00;99.90
10042;DHT22;5061;49.068;12.058;2024-03-08T14:37:23;11.10;99.90
10042;DHT22;5061;49.068;12.058;2024-03-08T14:40:48;11.20;99.90
10042;DHT22;5061;49.068;12.058;2024-03-08T14:44:09;11.20;99.90
10042;DHT22;5061;49.068;12.058;2024-03-08T14:47:29;11.30;99.90
10042;DHT22;5061;49.068;12.058;2024-03-08T14:50:50;11.20;99.90
10042;DHT22;5061;49.068;12.058;2024-03-08T14:54:11;11.00;99.90
10042;DHT22;5061;49.068;12.058;2024-03-08T14:57:33;11.00;99.90
10042;DHT22;5061;49.068;12.058;2024-03-08T15:00:54;11.10;99.90
10042;DHT22;5061;49.068;12.058;2024-03-08T15:04:16;11.00;99.90
10042;DHT22;5061;49.068;12.058;2024-03-08T15:07:38;11.10;99.90
10042;DHT22;5061;49.068;12.058;2024-03-08T15:11:03;11.00;99.90
10042;DHT22;5061;49.068;12.058;2024-03-08T15:14:24;11.00;99.90
10042;DHT22;5061;49.068;12.058;2024-03-08T15:17:47;11.00;99.90
10042;DHT22;5061;49.068;12.058;2024-03-08T15:21:07;11.00;99.90
10042;DHT22;5061;49.068;12.058;2024-03-08T15:24:28;11.00;99.90
10042;DHT22;5061;49.068;12.058;2024-03-08T15:27:48;10.80;99.90
10042;DHT22;5061;49.068;12.058;2024-03-08T15:31:09;10.60;99.90
10042;DHT22;5061;49.068;12.058;2024-03-08T15:34:30;10.50;99.90
10042;DHT22;5061;49.068;12.058;2024-03-08T15:37:52;10.30;99.90
10042;DHT22;5061;49.068;12.058;2024-03-08T15:41:15;10.20;99.90
10042;DHT22;5061;49.068;12.058;2024-03-08T15:44:39;10.20;99.90
10042;DHT22;5061;49.068;12.058;2024-03-08T15:48:01;10.10;99.90
10042;DHT22;5061;49.068;12.058;2024-03-08T15:51:25;10.00;99.90
10042;DHT22;5061;49.068;12.058;2024-03-08T15:54:46;9.90;99.90
10042;DHT22;5061;49.068;12.058;2024-03-08T15:58:07;9.80;99.90
10042;DHT22;5061;49.068;12.058;2024-03-08T16:01:28;9.70;99.90
10042;DHT22;5061;49.068;12.058;2024-03-08T16:04:48;9.60;99.90
10042;DHT22;5061;49.068;12.058;2024-03-08T16:08:11;9.60;99.90
10042;DHT22;5061;49.068;12.058;2024-03-08T16:11:35;9.50;99.90
10042;DHT22;5061;49.068;12.058;2024-03-08T16:14:58;9.40;99.90
10042;DHT22;5061;49.068;12.058;2024-03-08T16:18:19;9.30;99.90
10042;DHT22;5061;49.068;12.058;2024-03-08T16:21:41;9.20;99.90
10042;DHT22;5061;49.068;12.058;2024-03-08T16:25:02;9.20;99.90
10042;DHT22;5061;49.068;12.058;2024-03-08T16:28:25;9.10;99.90
10042;DHT22;5061;49.068;12.058;2024-03-08T16:31:58;9.00;99.90
10042;DHT22;5061;49.068;12.058;2024-03-08T16:35:19;8.80;99.90
10042;DHT22;5061;49.068;12.058;2024-03-08T16:38:40;8.70;99.90
10042;DHT22;5061;49.068;12.058;2024-03-08T16:42:04;8.50;99.90
10042;DHT22;5061;49.068;12.058;2024-03-08T16:45:28;8.40;99.90
10042;DHT22;5061;49.068;12.058;2024-03-08T16:48:49;8.20;99.90
10042;DHT22;5061;49.068;12.058;2024-03-08T16:52:10;8.10;99.90
10042;DHT22;5061;49.068;12.058;2024-03-08T16:55:30;8.00;99.90
10042;DHT22;5061;49.068;12.058;2024-03-08T16:58:51;7.80;99.90
10042;DHT22;5061;49.068;12.058;2024-03-08T17:02:12;7.60;99.90
10042;DHT22;5061;49.068;12.058;2024-03-08T17:05:32;7.50;99.90
10042;DHT22;5061;49.068;12.058;2024-03-08T17:08:53;7.40;99.90
10042;DHT22;5061;49.068;12.058;2024-03-08T17:12:14;7.30;99.90
10042;DHT22;5061;49.068;12.058;2024-03-08T17:15:39;7.20;99.90
10042;DHT22;5061;49.068;12.058;2024-03-08T17:19:01;7.00;99.90
10042;DHT22;5061;49.068;12.058;2024-03-08T17:22:23;6.90;99.90
10042;DHT22;5061;49.068;12.058;2024-03-08T17:25:44;6.80;99.90
10042;DHT22;5061;49.068;12.058;2024-03-08T17:29:06;6.70;99.90
10042;DHT22;5061;49.068;12.058;2024-03-08T17:32:28;6.60;99.90
10042;DHT22;5061;49.068;12.058;2024-03-08T17:35:48;6.50;99.90
10042;DHT22;5061;49.068;12.058;2024-03-08T17:39:14;6.40;99.90
10042;DHT22;5061;49.068;12.058;2024-03-08T17:42:46;6.30;99.90
10042;DHT22;5061;49.068;12.058;2024-03-08T17:46:08;6.20;99.90
10042;DHT22;5061;49.068;12.058;2024-03-08T17:49:28;6.10;99.90
10042;DHT22;5061;49.068;12.058;2024-03-08T17:52:51;6.00;99.90
10042;DHT22;5061;49.068;12.058;2024-03-08T17:56:12;6.00;99.90
10042;DHT22;5061;49.068;12.058;2024-03-08T17:59:34;5.90;99.90
10042;DHT22;5061;49.068;12.058;2024-03-08T18:02:56;5.80;99.90
10042;DHT22;5061;49.068;12.058;2024-03-08T18:06:16;5.70;99.90
10042;DHT22;5061;49.068;12.058;2024-03-08T18:09:37;5.70;99.90
10042;DHT22;5061;49.068;12.058;2024-03-08T18:12:58;5.60;99.90
10042;DHT22;5061;49.068;12.058;2024-03-08T18:16:19;5.50;99.90
10042;DHT22;5061;49.068;12.058;2024-03-08T18:19:40;5.50;99.90
10042;DHT22;5061;49.068;12.058;2024-03-08T18:23:03;5.40;99.90
10042;DHT22;5061;49.068;12.058;2024-03-08T18:26:24;5.30;99.90
10042;DHT22;5061;49.068;12.058;2024-03-08T18:29:46;5.30;99.90
10042;DHT22;5061;49.068;12.058;2024-03-08T18:33:08;5.20;99.90
10042;DHT22;5061;49.068;12.058;2024-03-08T18:36:28;5.10;99.90
10042;DHT22;5061;49.068;12.058;2024-03-08T18:39:54;5.10;99.90
10042;DHT22;5061;49.068;12.058;2024-03-08T18:43:16;5.10;99.90
10042;DHT22;5061;49.068;12.058;2024-03-08T18:46:44;5.00;99.90
10042;DHT22;5061;49.068;12.058;2024-03-08T18:50:05;4.90;99.90
10042;DHT22;5061;49.068;12.058;2024-03-08T18:53:28;4.90;99.90
10042;DHT22;5061;49.068;12.058;2024-03-08T18:56:49;4.80;99.90
10042;DHT22;5061;49.068;12.058;2024-03-08T19:00:12;4.80;99.90
10042;DHT22;5061;49.068;12.058;2024-03-08T19:03:41;4.70;99.90
10042;DHT22;5061;49.068;12.058;2024-03-08T19:07:02;4.70;99.90
10042;DHT22;5061;49.068;12.058;2024-03-08T19:10:25;4.60;99.90
10042;DHT22;5061;49.068;12.058;2024-03-08T19:13:45;4.60;99.90
10042;DHT22;5061;49.068;12.058;2024-03-08T19:17:06;4.60;99.90
10042;DHT22;5061;49.068;12.058;2024-03-08T19:20:31;4.50;99.90
10042;DHT22;5061;49.068;12.058;2024-03-08T19:23:54;4.50;99.90
10042;DHT22;5061;49.068;12.058;2024-03-08T19:27:15;4.40;99.90
10042;DHT22;5061;49.068;12.058;2024-03-08T19:30:36;4.40;99.90
10042;DHT22;5061;49.068;12.058;2024-03-08T19:33:57;4.30;99.90
10042;DHT22;5061;49.068;12.058;2024-03-08T19:37:18;4.30;99.90
10042;DHT22;5061;49.068;12.058;2024-03-08T19:40:40;4.30;99.90
10042;DHT22;5061;49.068;12.058;2024-03-08T19:44:04;4.20;99.90
10042;DHT22;5061;49.068;12.058;2024-03-08T19:47:28;4.20;99.90
10042;DHT22;5061;49.068;12.058;2024-03-08T19:50:49;4.10;99.90
10042;DHT22;5061;49.068;12.058;2024-03-08T19:54:11;4.10;99.90
10042;DHT22;5061;49.068;12.058;2024-03-08T19:57:35;4.10;99.90
10042;DHT22;5061;49.068;12.058;2024-03-08T20:00:55;4.00;99.90
10042;DHT22;5061;49.068;12.058;2024-03-08T20:04:16;4.00;99.90
10042;DHT22;5061;49.068;12.058;2024-03-08T20:07:37;3.90;99.90
10042;DHT22;5061;49.068;12.058;2024-03-08T20:10:58;3.90;99.90
10042;DHT22;5061;49.068;12.058;2024-03-08T20:14:23;3.80;99.90
10042;DHT22;5061;49.068;12.058;2024-03-08T20:17:46;3.80;99.90
10042;DHT22;5061;49.068;12.058;2024-03-08T20:21:06;3.80;99.90
10042;DHT22;5061;49.068;12.058;2024-03-08T20:24:28;3.70;99.90
10042;DHT22;5061;49.068;12.058;2024-03-08T20:27:51;3.70;99.90
10042;DHT22;5061;49.068;12.058;2024-03-08T20:31:11;3.70;99.90
10042;DHT22;5061;49.068;12.058;2024-03-08T20:34:33;3.60;99.90
10042;DHT22;5061;49.068;12.058;2024-03-08T20:37:55;3.60;99.90
10042;DHT22;5061;49.068;12.058;2024-03-08T20:41:16;3.60;99.90
10042;DHT22;5061;49.068;12.058;2024-03-08T20:44:36;3.50;99.90
10042;DHT22;5061;49.068;12.058;2024-03-08T20:47:57;3.50;99.90
10042;DHT22;5061;49.068;12.058;2024-03-08T20:51:18;3.50;99.90
10042;DHT22;5061;49.068;12.058;2024-03-08T20:54:39;3.40;99.90
10042;DHT22;5061;49.068;12.058;2024-03-08T20:58:00;3.40;99.90
10042;DHT22;5061;49.068;12.058;2024-03-08T21:01:20;3.40;99.90
10042;DHT22;5061;49.068;12.058;2024-03-08T21:04:46;3.30;99.90
10042;DHT22;5061;49.068;12.058;2024-03-08T21:08:10;3.30;99.90
10042;DHT22;5061;49.068;12.058;2024-03-08T21:11:38;3.30;99.90
10042;DHT22;5061;49.068;12.058;2024-03-08T21:15:00;3.20;99.90
10042;DHT22;5061;49.068;12.058;2024-03-08T21:18:24;3.20;99.90
10042;DHT22;5061;49.068;12.058;2024-03-08T21:21:49;3.20;99.90
10042;DHT22;5061;49.068;12.058;2024-03-08T21:25:10;3.10;99.90
10042;DHT22;5061;49.068;12.058;2024-03-08T21:28:31;3.10;99.90
10042;DHT22;5061;49.068;12.058;2024-03-08T21:31:51;3.10;99.90
10042;DHT22;5061;49.068;12.058;2024-03-08T21:35:12;3.00;99.90